Time;durP1;ratioP1;P1;durP2;ratioP2;P2;SDS_P1;SDS_P2;PMS_P1;PMS_P2;Temp;Humidity;BMP_temperature;BMP_pressure;BME280_temperature;BME280_humidity;BME280_pressure;Samples;Min_cycle;Max_cycle;Signal;HPM_P1;HPM_P2
2024/05/02 00:04:51;;;;;;;8.80;5.38;;;;;;;18.61;74.52;99722.88;10855034;26;20397;-21
2024/05/02 00:09:58;;;;;;;8.95;5.47;;;;;;;18.41;75.60;99719.88;10857323;26;20015;-20
2024/05/02 00:15:01;;;;;;;10.45;5.68;;;;;;;18.20;75.69;99712.59;10852810;26;20700;-20
2024/05/02 00:20:06;;;;;;;8.48;5.60;;;;;;;18.13;76.71;99709.09;10855354;26;20021;-21
2024/05/02 00:25:12;;;;;;;11.90;5.93;;;;;;;17.99;77.22;99707.19;10847404;26;20024;-20
2024/05/02 00:30:16;;;;;;;10.23;5.65;;;;;;;17.78;78.31;99708.00;10852149;26;24708;-21
2024/05/02 00:35:21;;;;;;;8.60;6.22;;;;;;;17.81;78.00;99709.94;10852314;26;20019;-20
2024/05/02 00:40:28;;;;;;;9.98;5.75;;;;;;;17.61;78.13;99706.88;10850470;26;22613;-24
2024/05/02 00:45:31;;;;;;;9.25;5.47;;;;;;;17.44;79.78;99718.53;10849835;26;24071;-20
2024/05/02 00:50:36;;;;;;;8.60;5.07;;;;;;;17.29;80.66;99717.78;10848608;26;21822;-21
2024/05/02 00:55:47;;;;;;;10.05;6.25;;;;;;;17.20;81.48;99720.09;10860432;26;20719;-21
2024/05/02 01:00:51;;;;;;;10.25;6.13;;;;;;;17.10;82.04;99722.78;10815514;26;24019;-21
2024/05/02 01:05:55;;;;;;;9.85;6.00;;;;;;;16.91;83.62;99727.38;10832994;26;20625;-21
2024/05/02 01:11:03;;;;;;;8.45;5.80;;;;;;;16.69;84.51;99728.50;10845724;26;20031;-20
2024/05/02 01:16:07;;;;;;;9.77;5.80;;;;;;;16.59;84.92;99716.47;10844426;26;20026;-20
2024/05/02 01:21:11;;;;;;;7.85;5.63;;;;;;;16.56;84.81;99713.75;10834126;26;20008;-21
2024/05/02 01:26:17;;;;;;;9.07;5.82;;;;;;;16.51;85.12;99711.41;10846879;26;20148;-20
2024/05/02 01:31:22;;;;;;;9.70;6.22;;;;;;;16.30;86.89;99710.19;10845857;26;20336;-20
2024/05/02 01:36:26;;;;;;;11.10;6.25;;;;;;;16.28;87.09;99711.72;10846710;26;20024;-21
2024/05/02 01:41:32;;;;;;;9.82;6.05;;;;;;;16.27;87.31;99707.47;10842421;26;20034;-20
2024/05/02 01:46:36;;;;;;;11.63;7.00;;;;;;;16.19;87.86;99700.47;10843210;26;20031;-20
2024/05/02 01:51:40;;;;;;;12.18;6.68;;;;;;;16.07;87.26;99701.53;10848885;26;21199;-21
2024/05/02 01:56:46;;;;;;;10.35;7.07;;;;;;;15.99;88.36;99700.72;10840600;26;22727;-20
2024/05/02 02:01:50;;;;;;;12.65;6.25;;;;;;;15.97;88.75;99697.59;10852597;26;20945;-20
2024/05/02 02:06:54;;;;;;;12.45;6.60;;;;;;;15.86;88.84;99690.59;10855388;26;20023;-21
2024/05/02 02:12:00;;;;;;;14.30;7.18;;;;;;;15.76;88.96;99692.84;10855352;26;20084;-20
2024/05/02 02:17:04;;;;;;;9.88;6.95;;;;;;;15.91;89.75;99695.63;10857597;26;20114;-20
2024/05/02 02:22:08;;;;;;;11.85;7.18;;;;;;;15.80;89.62;99687.47;10855294;26;20016;-21
2024/05/02 02:27:15;;;;;;;14.43;7.38;;;;;;;15.65;90.08;99683.13;10850158;26;22792;-20
2024/05/02 02:32:18;;;;;;;14.80;6.72;;;;;;;15.57;89.87;99674.19;10854326;26;20011;-20
2024/05/02 02:37:22;;;;;;;13.02;7.20;;;;;;;15.49;88.73;99675.28;10852280;26;20026;-20
2024/05/02 02:42:29;;;;;;;11.52;7.35;;;;;;;15.52;90.87;99660.22;10851888;26;20016;-20
2024/05/02 02:47:32;;;;;;;11.35;6.60;;;;;;;15.44;90.41;99670.22;10852201;26;20577;-20
2024/05/02 02:52:36;;;;;;;10.68;7.18;;;;;;;15.32;90.29;99663.19;10840609;26;24001;-20
2024/05/02 02:57:43;;;;;;;10.57;6.32;;;;;;;15.23;91.08;99649.19;10846548;26;20626;-20
2024/05/02 03:02:46;;;;;;;10.65;7.25;;;;;;;15.14;91.60;99648.75;10850449;26;20256;-20
2024/05/02 03:07:51;;;;;;;14.35;7.50;;;;;;;15.10;92.21;99648.72;10835053;26;20570;-20
2024/05/02 03:12:57;;;;;;;14.55;7.68;;;;;;;15.10;92.49;99645.22;10815865;26;20008;-20
2024/05/02 03:18:01;;;;;;;12.40;7.18;;;;;;;15.15;91.91;99631.38;10826320;26;20032;-20
2024/05/02 03:23:05;;;;;;;11.93;7.07;;;;;;;15.19;91.76;99640.28;10814679;26;22815;-19
2024/05/02 03:28:12;;;;;;;10.45;6.65;;;;;;;15.13;92.41;99628.25;10807856;26;20027;-20
2024/05/02 03:33:16;;;;;;;12.75;7.07;;;;;;;15.09;91.87;99628.22;10841233;26;20018;-20
2024/05/02 03:38:19;;;;;;;11.75;7.35;;;;;;;15.22;91.83;99627.94;10852161;26;21371;-20
2024/05/02 03:43:26;;;;;;;10.95;6.97;;;;;;;15.22;90.91;99628.69;10854618;26;21544;-20
2024/05/02 03:48:30;;;;;;;14.43;7.57;;;;;;;15.16;90.43;99624.81;10854266;26;20012;-20
2024/05/02 03:53:33;;;;;;;11.60;6.90;;;;;;;15.25;90.65;99633.41;10831680;26;20061;-20
2024/05/02 03:58:40;;;;;;;;;;;;;;;15.24;90.35;99634.53;10853407;26;21393;-20
2024/05/02 04:03:44;;;;;;;12.10;6.53;;;;;;;15.21;90.03;99634.50;10850290;26;19940;-20
2024/05/02 04:08:48;;;;;;;14.73;6.90;;;;;;;15.15;91.27;99653.78;10847379;26;20008;-20
2024/05/02 04:13:55;;;;;;;10.52;6.55;;;;;;;15.07;92.38;99676.50;10849605;26;20011;-21
2024/05/02 04:18:58;;;;;;;11.52;7.25;;;;;;;15.37;90.45;99635.00;10832422;26;20542;-21
2024/05/02 04:24:04;;;;;;;13.98;7.53;;;;;;;14.98;92.91;99659.81;10841734;26;20019;-20
2024/05/02 04:29:10;;;;;;;14.63;7.60;;;;;;;15.03;93.14;99664.88;10843534;26;20121;-20
2024/05/02 04:34:14;;;;;;;12.18;7.50;;;;;;;15.21;91.51;99653.44;10844507;26;20067;-20
2024/05/02 04:39:18;;;;;;;14.52;7.22;;;;;;;15.04;92.67;99660.25;10822073;26;20151;-20
2024/05/02 04:44:25;;;;;;;14.95;7.35;;;;;;;14.90;93.04;99650.06;10831622;26;20758;-20
2024/05/02 04:49:29;;;;;;;11.05;7.18;;;;;;;14.94;93.56;99663.66;10836298;26;20032;-20
2024/05/02 04:54:32;;;;;;;10.32;6.57;;;;;;;15.03;92.36;99669.53;10848361;26;20121;-20
2024/05/02 04:59:39;;;;;;;10.63;6.53;;;;;;;15.19;92.51;99670.03;10851736;26;20035;-20
2024/05/02 05:04:43;;;;;;;13.38;7.50;;;;;;;15.24;92.83;99663.50;10823908;26;20044;-20
2024/05/02 05:09:46;;;;;;;12.93;6.93;;;;;;;15.35;92.50;99675.19;10841133;26;20068;-19
2024/05/02 05:14:53;;;;;;;10.60;7.28;;;;;;;15.54;91.56;99663.34;10842021;26;20300;-20
2024/05/02 05:19:57;;;;;;;10.25;6.97;;;;;;;15.80;89.99;99649.56;10839811;26;20356;-20
2024/05/02 05:25:01;;;;;;;13.60;7.57;;;;;;;16.40;87.56;99651.75;10846495;26;20019;-20
2024/05/02 05:30:09;;;;;;;12.95;7.97;;;;;;;16.96;84.16;99651.06;10817511;26;20019;-20
2024/05/02 05:35:13;;;;;;;14.88;7.97;;;;;;;17.06;82.85;99650.31;10854587;26;20027;-20
2024/05/02 05:40:17;;;;;;;12.60;7.70;;;;;;;17.41;81.48;99639.81;10854485;26;20110;-20
2024/05/02 05:45:25;;;;;;;11.13;7.55;;;;;;;17.63;80.00;99631.22;10855138;26;20479;-20
2024/05/02 05:50:29;;;;;;;14.10;7.43;;;;;;;18.17;76.91;99637.28;10852738;26;20791;-21
2024/05/02 05:55:33;;;;;;;11.60;7.07;;;;;;;18.28;76.27;99638.00;10853655;26;20119;-21
2024/05/02 06:00:39;;;;;;;14.90;7.13;;;;;;;18.70;75.61;99633.47;10858887;26;20433;-21
2024/05/02 06:05:43;;;;;;;12.52;6.50;;;;;;;19.04;72.66;99635.56;10863736;26;20672;-21
2024/05/02 06:10:47;;;;;;;9.98;5.78;;;;;;;18.44;73.53;99625.88;10844563;26;20029;-22
2024/05/02 06:15:53;;;;;;;13.27;6.13;;;;;;;19.38;71.37;99614.63;10839578;26;20424;-21
2024/05/02 06:20:57;;;;;;;12.82;6.07;;;;;;;19.57;69.31;99619.50;10862964;26;20354;-21
2024/05/02 06:26:01;;;;;;;10.48;5.53;;;;;;;19.57;68.61;99630.41;10862660;26;20028;-21
2024/05/02 06:31:07;;;;;;;8.70;5.38;;;;;;;19.53;68.85;99631.59;10856815;26;20444;-21
2024/05/02 06:36:11;;;;;;;8.73;5.55;;;;;;;19.96;67.49;99606.59;10861590;26;20027;-20
2024/05/02 06:41:15;;;;;;;12.10;5.35;;;;;;;20.90;66.94;99613.09;10846981;26;20836;-21
2024/05/02 06:46:22;;;;;;;11.20;5.38;;;;;;;21.20;64.70;99618.41;10860878;26;20026;-21
2024/05/02 06:51:26;;;;;;;8.85;5.22;;;;;;;21.26;63.65;99616.75;10850994;26;20707;-20
2024/05/02 06:56:30;;;;;;;8.98;5.13;;;;;;;21.05;64.14;99606.19;10858289;26;20106;-20
2024/05/02 07:01:36;;;;;;;12.05;5.40;;;;;;;21.97;61.48;99612.69;10861633;26;23377;-20
2024/05/02 07:06:40;;;;;;;9.65;5.20;;;;;;;21.57;61.73;99622.84;10858508;26;20101;-20
2024/05/02 07:11:43;;;;;;;;;;;;;;;21.95;60.88;99617.81;10840590;26;20011;-22
2024/05/02 07:16:50;;;;;;;7.63;4.90;;;;;;;21.85;60.25;99610.59;10862261;26;21580;-20
2024/05/02 07:21:54;;;;;;;10.80;4.82;;;;;;;22.45;60.62;99614.00;10862218;26;20035;-17
2024/05/02 07:26:58;;;;;;;7.38;5.00;;;;;;;23.08;58.55;99619.16;10854317;26;20012;-17
2024/05/02 07:32:04;;;;;;;;;;;;;;;22.99;56.64;99627.97;10843021;26;20024;-18
2024/05/02 07:37:08;;;;;;;9.23;4.57;;;;;;;22.20;57.69;99611.81;10877211;26;20032;-17
2024/05/02 07:42:11;;;;;;;;;;;;;;;23.06;59.07;99621.56;10869015;26;20111;-17
2024/05/02 07:47:19;;;;;;;10.20;4.68;;;;;;;23.35;57.97;99610.66;10879474;26;19941;-19
2024/05/02 07:52:23;;;;;;;7.82;4.82;;;;;;;22.75;56.09;99607.44;10871573;26;20455;-18
2024/05/02 07:57:29;;;;;;;8.05;4.70;;;;;;;23.50;53.58;99613.78;10856870;26;20101;-17
2024/05/02 08:02:35;;;;;;;11.07;4.53;;;;;;;23.41;55.31;99614.41;10877028;26;20031;-17
2024/05/02 08:07:39;;;;;;;7.90;4.70;;;;;;;23.22;54.67;99610.59;10877583;26;20023;-18
2024/05/02 08:12:46;;;;;;;8.30;4.90;;;;;;;23.20;56.40;99599.28;10869154;26;20241;-17
2024/05/02 08:17:52;;;;;;;9.93;5.03;;;;;;;23.82;51.93;99613.66;10866220;26;20012;-16
2024/05/02 08:22:56;;;;;;;8.07;5.13;;;;;;;23.85;52.58;99607.31;10885807;26;20008;-17
2024/05/02 08:28:03;;;;;;;9.02;4.65;;;;;;;24.17;52.98;99611.91;10888329;26;20087;-20
2024/05/02 08:33:09;;;;;;;9.27;4.72;;;;;;;24.53;51.09;99622.56;10882082;26;20810;-21
2024/05/02 08:38:17;;;;;;;9.80;5.32;;;;;;;24.73;50.25;99627.03;10887385;26;20027;-21
2024/05/02 08:43:22;;;;;;;8.20;5.25;;;;;;;25.07;50.68;99618.88;10873700;26;20658;-21
2024/05/02 08:48:28;;;;;;;7.68;5.18;;;;;;;24.29;52.18;99613.13;10873871;26;20603;-20
2024/05/02 08:53:32;;;;;;;9.88;5.97;;;;;;;25.90;50.44;99609.31;10875394;26;20234;-20
2024/05/02 08:58:41;;;;;;;12.05;5.85;;;;;;;26.36;49.48;99615.81;10876731;26;20456;-21
2024/05/02 09:03:49;;;;;;;11.95;5.78;;;;;;;25.33;50.44;99616.03;10869514;26;20023;-21
2024/05/02 09:08:53;;;;;;;13.63;5.95;;;;;;;26.28;47.57;99608.28;10871644;26;20845;-22
2024/05/02 09:13:57;;;;;;;9.10;5.10;;;;;;;25.66;48.75;99611.78;10874134;26;20577;-22
2024/05/02 09:19:03;;;;;;;7.78;5.05;;;;;;;25.86;45.44;99609.44;10875120;26;20562;-21
2024/05/02 09:24:08;;;;;;;8.20;5.32;;;;;;;26.60;45.17;99610.56;10873621;26;20100;-21
2024/05/02 09:29:13;;;;;;;9.63;4.50;;;;;;;26.42;44.29;99604.97;10877746;26;21678;-18
2024/05/02 09:34:20;;;;;;;6.05;4.32;;;;;;;26.87;44.06;99620.16;10872863;26;20038;-18
2024/05/02 09:39:26;;;;;;;8.15;5.38;;;;;;;27.08;44.57;99620.03;10878433;26;20011;-18
2024/05/02 09:44:31;;;;;;;7.50;5.35;;;;;;;26.93;45.72;99627.34;10863068;26;20015;-18
2024/05/02 09:49:43;;;;;;;9.38;5.90;;;;;;;27.44;46.24;99629.56;10873031;26;20031;-18
2024/05/02 09:54:49;;;;;;;9.07;5.25;;;;;;;27.24;43.50;99626.47;10876081;26;20015;-19
2024/05/02 09:59:54;;;;;;;8.60;5.10;;;;;;;27.75;46.83;99627.41;10868638;26;20094;-19
2024/05/02 10:05:03;;;;;;;7.22;5.18;;;;;;;27.09;43.32;99615.28;10856153;26;20012;-19
2024/05/02 10:10:17;;;;;;;6.90;5.22;;;;;;;27.71;42.46;99615.75;10866935;26;20248;-17
2024/05/02 10:15:22;;;;;;;;;;;;;;;27.10;43.61;99623.09;10849450;26;20716;-18
2024/05/02 10:20:31;;;;;;;11.75;5.72;;;;;;;27.07;42.90;99629.53;10464104;26;20960;-18
2024/05/02 10:25:39;;;;;;;9.23;5.20;;;;;;;26.49;42.67;99629.47;10103070;26;21260;-15
2024/05/02 10:30:43;;;;;;;7.25;4.75;;;;;;;26.72;44.11;99628.19;10096256;26;20882;-18
2024/05/02 10:35:56;;;;;;;7.47;4.35;;;;;;;26.64;43.96;99626.97;10085052;26;20595;-18
2024/05/02 10:41:01;;;;;;;8.50;5.00;;;;;;;26.81;42.76;99620.72;10080681;26;20007;-18
2024/05/02 10:46:06;;;;;;;10.98;5.55;;;;;;;28.13;41.49;99619.81;10022657;26;21120;-18
2024/05/02 10:51:14;;;;;;;9.75;5.63;;;;;;;27.52;42.11;99619.78;10085729;26;23060;-19
2024/05/02 10:56:19;;;;;;;7.68;5.40;;;;;;;27.58;42.13;99626.19;10129631;26;20583;-19
2024/05/02 11:01:26;;;;;;;9.27;5.50;;;;;;;27.33;41.57;99624.47;10086225;26;20270;-18
2024/05/02 11:06:34;;;;;;;11.10;5.35;;;;;;;27.14;41.53;99622.94;10052126;26;22515;-18
2024/05/02 11:11:39;;;;;;;9.05;5.22;;;;;;;27.42;43.83;99632.78;10093520;26;23317;-18
2024/05/02 11:16:43;;;;;;;9.50;5.05;;;;;;;27.25;45.80;99625.25;10066982;26;21484;-17
2024/05/02 11:21:52;;;;;;;10.82;5.75;;;;;;;27.98;43.21;99627.97;10100270;26;21655;-19
2024/05/02 11:26:57;;;;;;;5.93;4.75;;;;;;;27.26;42.16;99619.25;10071407;26;20106;-19
2024/05/02 11:32:02;;;;;;;8.38;5.95;;;;;;;28.12;39.86;99627.34;10121286;26;20599;-19
2024/05/02 11:37:09;;;;;;;8.85;5.63;;;;;;;27.48;44.24;99623.91;10116076;26;20866;-18
2024/05/02 11:42:13;;;;;;;7.50;5.47;;;;;;;27.76;43.47;99637.22;10112512;26;20479;-18
2024/05/02 11:47:17;;;;;;;11.15;6.20;;;;;;;27.96;45.13;99636.72;10079972;26;21481;-18
2024/05/02 11:52:24;;;;;;;10.02;6.25;;;;;;;27.94;46.68;99639.16;10119709;26;23295;-18
2024/05/02 11:57:30;;;;;;;10.65;5.95;;;;;;;27.70;46.80;99633.53;10121898;26;20011;-22
2024/05/02 12:02:35;;;;;;;9.98;5.78;;;;;;;27.24;47.46;99631.97;10134385;26;20026;-22
2024/05/02 12:07:42;;;;;;;10.85;7.63;;;;;;;26.54;48.26;99634.44;10134780;26;20291;-21
2024/05/02 12:12:47;;;;;;;7.90;6.57;;;;;;;27.00;48.00;99642.81;10100306;26;20858;-21
2024/05/02 12:17:52;;;;;;;8.48;5.97;;;;;;;27.18;46.02;99634.56;10126429;26;21154;-18
2024/05/02 12:22:59;;;;;;;10.57;6.53;;;;;;;27.09;48.28;99638.09;10062810;26;20489;-18
2024/05/02 12:28:04;;;;;;;11.38;8.13;;;;;;;27.65;45.74;99630.63;10099496;26;21391;-18
2024/05/02 12:33:08;;;;;;;9.57;6.53;;;;;;;27.56;45.20;99630.66;10116147;26;20203;-18
2024/05/02 12:38:16;;;;;;;9.45;6.20;;;;;;;27.80;46.20;99617.72;10115858;26;22242;-19
2024/05/02 12:43:20;;;;;;;10.82;6.85;;;;;;;28.69;45.37;99622.66;10078860;26;21517;-18
2024/05/02 12:48:24;;;;;;;10.50;6.50;;;;;;;28.25;44.33;99616.88;10068502;26;20835;-17
2024/05/02 12:53:31;;;;;;;11.38;6.43;;;;;;;28.05;44.06;99613.84;10049804;26;20008;-18
2024/05/02 12:58:36;;;;;;;12.77;6.55;;;;;;;27.49;46.46;99620.69;10071146;26;23461;-18
2024/05/02 13:03:40;;;;;;;42.85;9.55;;;;;;;27.19;47.05;99611.31;10127347;26;21613;-18
2024/05/02 13:08:47;;;;;;;21.27;13.52;;;;;;;27.62;50.09;99609.50;10127011;26;21144;-20
2024/05/02 13:13:51;;;;;;;27.02;18.02;;;;;;;28.23;49.53;99610.28;10111751;26;20020;-17
2024/05/02 13:18:55;;;;;;;28.15;20.55;;;;;;;28.12;49.95;99610.00;10147556;26;22153;-18
2024/05/02 13:24:02;;;;;;;58.42;20.27;;;;;;;28.14;50.16;99613.84;10045769;26;22757;-17
2024/05/02 13:29:09;;;;;;;26.52;19.05;;;;;;;28.23;49.32;99604.75;10123253;26;21912;-17
2024/05/02 13:34:14;;;;;;;31.42;18.88;;;;;;;28.60;50.55;99602.59;10048699;26;20058;-18
2024/05/02 13:39:21;;;;;;;31.58;20.35;;;;;;;28.08;51.28;99604.63;10081664;26;22512;-18
2024/05/02 13:44:25;;;;;;;36.33;27.20;;;;;;;28.18;49.84;99610.91;10102334;26;20021;-18
2024/05/02 13:49:30;;;;;;;33.10;24.30;;;;;;;27.46;50.05;99611.31;10118759;26;23172;-19
2024/05/02 13:54:37;;;;;;;32.58;23.08;;;;;;;27.61;51.60;99617.00;10089456;26;24407;-20
2024/05/02 13:59:42;;;;;;;36.60;27.83;;;;;;;26.58;52.73;99615.00;10134055;26;20094;-19
2024/05/02 14:04:47;;;;;;;35.25;25.52;;;;;;;26.48;54.43;99619.69;10121379;26;20020;-19
2024/05/02 14:09:54;;;;;;;41.33;28.38;;;;;;;25.80;55.32;99627.75;10111854;26;20021;-18
2024/05/02 14:14:59;;;;;;;33.08;25.95;;;;;;;26.15;54.95;99620.16;10129782;26;21403;-18
2024/05/02 14:20:03;;;;;;;40.58;28.92;;;;;;;25.90;56.57;99628.56;10103879;26;20821;-18
2024/05/02 14:25:10;;;;;;;38.33;27.13;;;;;;;24.97;56.60;99622.75;10075253;26;21273;-18
2024/05/02 14:30:14;;;;;;;45.15;29.80;;;;;;;24.32;59.33;99639.69;10033077;26;23561;-18
2024/05/02 14:35:19;;;;;;;42.38;29.35;;;;;;;24.05;61.23;99653.03;10047673;26;20471;-17
2024/05/02 14:40:26;;;;;;;44.40;30.23;;;;;;;23.94;62.43;99672.50;10088573;26;22203;-18
2024/05/02 14:45:30;;;;;;;45.63;29.80;;;;;;;23.40;66.27;99683.34;10060616;26;21172;-18
2024/05/02 14:50:34;;;;;;;54.00;33.38;;;;;;;21.97;74.45;99672.06;10122452;26;24105;-17
2024/05/02 14:55:42;;;;;;;49.00;32.03;;;;;;;21.39;78.92;99671.56;10084889;26;23960;-17
2024/05/02 15:00:47;;;;;;;48.78;33.60;;;;;;;21.32;81.99;99660.75;10065107;26;20643;-18
2024/05/02 15:05:51;;;;;;;54.08;34.53;;;;;;;20.95;82.39;99659.03;10037684;26;20783;-18
2024/05/02 15:10:59;;;;;;;55.55;34.17;;;;;;;20.83;84.17;99647.47;10059612;26;20432;-18
2024/05/02 15:16:03;;;;;;;55.85;35.83;;;;;;;20.46;84.90;99647.66;10071649;26;20070;-18
2024/05/02 15:21:10;;;;;;;55.28;35.60;;;;;;;20.60;83.60;99646.66;10072423;26;21797;-16
2024/05/02 15:26:18;;;;;;;58.08;35.85;;;;;;;20.50;85.49;99659.28;10061529;26;20007;-18
2024/05/02 15:31:23;;;;;;;57.75;34.72;;;;;;;20.47;84.70;99671.03;10089639;26;21621;-18
2024/05/02 15:36:27;;;;;;;59.45;35.33;;;;;;;20.53;84.29;99693.91;10053481;26;20021;-18
2024/05/02 15:41:34;;;;;;;60.33;34.47;;;;;;;20.39;85.96;99696.81;10054699;26;20874;-17
2024/05/02 15:46:40;;;;;;;58.15;33.70;;;;;;;20.27;86.62;99706.31;10061869;26;20015;-18
2024/05/02 15:51:44;;;;;;;54.03;33.30;;;;;;;20.28;87.47;99702.41;10043082;26;21667;-18
2024/05/02 15:56:50;;;;;;;49.03;28.88;;;;;;;19.83;85.10;99704.47;10652027;26;20627;-17
2024/05/02 16:01:54;;;;;;;50.83;29.73;;;;;;;19.97;85.64;99726.13;10875119;26;20021;-18
2024/05/02 16:06:58;;;;;;;44.08;27.27;;;;;;;19.62;82.42;99731.94;10875110;26;20024;-18
2024/05/02 16:12:05;;;;;;;42.55;24.80;;;;;;;19.47;84.23;99726.59;10876636;26;20012;-18
2024/05/02 16:17:09;;;;;;;42.85;25.20;;;;;;;19.25;86.20;99709.66;10877868;26;20480;-17
2024/05/02 16:22:13;;;;;;;42.95;24.58;;;;;;;19.28;86.48;99719.75;10877992;26;21049;-16
2024/05/02 16:27:19;;;;;;;41.78;23.58;;;;;;;19.01;84.66;99737.81;10882379;26;21913;-17
2024/05/02 16:32:23;;;;;;;42.65;24.08;;;;;;;18.98;86.43;99756.88;10883055;26;20134;-17
2024/05/02 16:37:27;;;;;;;39.25;24.05;;;;;;;18.90;88.74;99777.94;10884799;26;20582;-17
2024/05/02 16:42:33;;;;;;;39.83;22.13;;;;;;;18.86;85.94;99801.66;10855722;26;20865;-18
2024/05/02 16:47:37;;;;;;;38.55;22.20;;;;;;;18.71;86.46;99806.41;10879578;26;20035;-17
2024/05/02 16:52:41;;;;;;;39.22;20.02;;;;;;;18.55;86.25;99819.66;10883177;26;20127;-17
2024/05/02 16:57:48;;;;;;;33.10;18.65;;;;;;;18.31;86.48;99832.94;10874337;26;20015;-19
2024/05/02 17:02:52;;;;;;;28.73;16.13;;;;;;;18.04;85.94;99812.78;10883381;26;20015;-17
2024/05/02 17:07:55;;;;;;;29.48;16.48;;;;;;;18.01;85.81;99822.47;10876798;26;20007;-18
2024/05/02 17:13:02;;;;;;;29.13;15.75;;;;;;;18.02;85.59;99823.25;10881009;26;20024;-18
2024/05/02 17:18:07;;;;;;;27.33;15.48;;;;;;;17.82;84.26;99831.00;10882823;26;20545;-18
2024/05/02 17:23:10;;;;;;;32.80;15.38;;;;;;;17.70;86.04;99836.84;10879703;26;20047;-18
2024/05/02 17:28:17;;;;;;;;;;;;;;;17.59;86.14;99882.22;10880457;26;20229;-17
2024/05/02 17:33:21;;;;;;;29.40;15.88;;;;;;;17.58;86.81;99903.16;10888322;26;19962;-17
2024/05/02 17:38:25;;;;;;;;;;;;;;;17.41;88.71;99928.34;10887991;26;20132;-17
2024/05/02 17:43:31;;;;;;;33.42;17.20;;;;;;;17.12;86.66;99960.00;10886135;26;20377;-17
2024/05/02 17:48:36;;;;;;;35.15;18.02;;;;;;;17.08;88.59;100005.34;10885780;26;23772;-16
2024/05/02 17:53:40;;;;;;;38.13;17.58;;;;;;;16.94;90.29;100032.34;10892014;26;22133;-17
2024/05/02 17:58:47;;;;;;;;;;;;;;;16.68;93.53;100017.06;10862344;26;20739;-17
2024/05/02 18:03:51;;;;;;;40.08;18.75;;;;;;;16.56;93.40;100026.28;10893826;26;20053;-16
2024/05/02 18:08:55;;;;;;;36.38;19.02;;;;;;;16.52;93.04;100033.63;10842243;26;20110;-17
2024/05/02 18:14:02;;;;;;;38.90;18.90;;;;;;;16.32;95.03;100057.47;10847000;26;20027;-16
2024/05/02 18:19:05;;;;;;;38.78;19.15;;;;;;;16.11;95.54;100095.19;10885418;26;20688;-16
2024/05/02 18:24:10;;;;;;;39.58;18.08;;;;;;;16.01;95.94;100107.41;10888306;26;25233;-16
2024/05/02 18:29:17;;;;;;;33.75;17.73;;;;;;;15.82;97.61;100093.25;10894844;26;20395;-16
2024/05/02 18:34:22;;;;;;;38.25;19.48;;;;;;;15.67;97.72;100076.84;10897419;26;20011;-17
2024/05/02 18:39:26;;;;;;;35.67;18.52;;;;;;;15.63;98.71;100072.53;10865187;26;20216;-17
2024/05/02 18:44:32;;;;;;;;;;;;;;;15.56;99.88;100050.78;10906384;26;20926;-16
2024/05/02 18:49:36;;;;;;;31.73;17.45;;;;;;;15.38;99.11;100055.97;10886033;26;19947;-16
2024/05/02 18:54:39;;;;;;;31.40;16.15;;;;;;;15.47;98.95;100070.78;10876491;26;23727;-16
2024/05/02 18:59:46;;;;;;;28.80;15.77;;;;;;;15.32;100.00;100079.88;10895036;26;20064;-17
2024/05/02 19:04:50;;;;;;;28.55;14.48;;;;;;;15.29;100.00;100071.69;10866451;26;20142;-17
2024/05/02 19:09:53;;;;;;;28.23;14.88;;;;;;;15.30;100.00;100073.25;10889155;26;20030;-17
2024/05/02 19:15:00;;;;;;;32.10;15.52;;;;;;;15.16;100.00;100071.09;10871833;26;20091;-17
2024/05/02 19:20:04;;;;;;;25.83;13.65;;;;;;;15.19;100.00;100073.09;10886166;26;20789;-17
2024/05/02 19:25:08;;;;;;;23.27;12.00;;;;;;;15.05;100.00;100073.66;10861544;26;21037;-17
2024/05/02 19:30:15;;;;;;;;;;;;;;;14.98;100.00;100075.47;10818910;26;20452;-16
2024/05/02 19:35:22;;;;;;;22.33;10.90;;;;;;;14.98;100.00;100062.75;10858351;26;20617;-17
2024/05/02 19:40:26;;;;;;;20.92;10.55;;;;;;;14.83;100.00;100053.59;10859059;26;20755;-16
2024/05/02 19:45:33;;;;;;;22.30;11.65;;;;;;;14.87;100.00;100059.06;10866147;26;20137;-15
2024/05/02 19:50:38;;;;;;;24.38;10.77;;;;;;;14.77;100.00;100063.19;10886926;26;24361;-17
2024/05/02 19:55:41;;;;;;;22.17;10.40;;;;;;;14.76;100.00;100060.84;10875388;26;20698;-17
2024/05/02 20:00:48;;;;;;;17.45;9.77;;;;;;;14.64;100.00;100063.72;10878886;26;20116;-20
2024/05/02 20:05:52;;;;;;;19.42;10.23;;;;;;;14.64;100.00;100066.44;10859781;26;20654;-16
2024/05/02 20:10:56;;;;;;;20.33;10.68;;;;;;;14.65;100.00;100076.09;10877272;26;20696;-17
2024/05/02 20:16:03;;;;;;;23.27;12.20;;;;;;;14.57;100.00;100074.44;10887135;26;20044;-17
2024/05/02 20:21:07;;;;;;;33.65;13.13;;;;;;;14.55;100.00;100072.09;10867266;26;21271;-16
2024/05/02 20:26:11;;;;;;;32.88;14.50;;;;;;;14.49;100.00;100087.81;10879894;26;20015;-17
2024/05/02 20:31:21;;;;;;;28.50;13.63;;;;;;;14.49;100.00;100097.84;10878751;26;20657;-17
2024/05/02 20:36:25;;;;;;;32.53;14.52;;;;;;;14.46;100.00;100104.75;10874096;26;20016;-17
2024/05/02 20:41:29;;;;;;;28.00;14.98;;;;;;;14.44;100.00;100107.03;10870684;26;20477;-17
2024/05/02 20:46:35;;;;;;;63.95;15.93;;;;;;;14.39;100.00;100101.16;10837299;26;23716;-16
2024/05/02 20:51:39;;;;;;;35.00;15.57;;;;;;;14.36;100.00;100107.22;10875938;26;20993;-16
2024/05/02 20:56:43;;;;;;;34.65;15.75;;;;;;;14.39;100.00;100088.41;10879370;26;20015;-17
2024/05/02 21:01:50;;;;;;;35.90;15.48;;;;;;;14.26;100.00;100076.19;10868131;26;20036;-15
2024/05/02 21:06:54;;;;;;;36.65;15.65;;;;;;;14.26;100.00;100076.19;10881176;26;20012;-17
2024/05/02 21:11:58;;;;;;;33.58;15.48;;;;;;;14.21;100.00;100079.19;10896059;26;20027;-15
2024/05/02 21:17:04;;;;;;;33.42;15.10;;;;;;;14.11;100.00;100085.97;10891495;26;21259;-16
2024/05/02 21:22:08;;;;;;;33.90;14.07;;;;;;;14.06;100.00;100072.75;10871857;26;20024;-16
2024/05/02 21:27:13;;;;;;;34.58;15.45;;;;;;;14.03;100.00;100062.66;10912965;26;20026;-15
2024/05/02 21:32:20;;;;;;;33.38;14.85;;;;;;;14.08;100.00;100067.00;10881820;26;20012;-16
2024/05/02 21:37:24;;;;;;;32.70;14.50;;;;;;;14.08;100.00;100085.88;10908674;26;20015;-17
2024/05/02 21:42:27;;;;;;;30.77;14.02;;;;;;;14.03;100.00;100094.28;10906640;26;20053;-17
2024/05/02 21:47:34;;;;;;;30.50;14.18;;;;;;;14.00;100.00;100100.41;10893098;26;20012;-16
2024/05/02 21:52:38;;;;;;;36.35;14.55;;;;;;;13.97;100.00;100096.50;10906460;26;21575;-16
2024/05/02 21:57:42;;;;;;;30.90;13.65;;;;;;;13.97;100.00;100101.88;10905886;26;20011;-15
2024/05/02 22:02:48;;;;;;;30.67;13.23;;;;;;;13.98;100.00;100108.84;10900401;26;20012;-16
2024/05/02 22:07:52;;;;;;;31.42;14.15;;;;;;;14.01;100.00;100137.06;10904274;26;20027;-16
2024/05/02 22:12:56;;;;;;;30.13;14.15;;;;;;;13.92;100.00;100142.66;10905945;26;20012;-15
2024/05/02 22:18:03;;;;;;;31.35;13.85;;;;;;;13.93;100.00;100144.22;10913352;26;20072;-16
2024/05/02 22:23:06;;;;;;;29.05;13.43;;;;;;;13.85;100.00;100132.50;10912979;26;20701;-16
2024/05/02 22:28:10;;;;;;;29.60;12.95;;;;;;;13.84;100.00;100138.25;10891514;26;20015;-16
2024/05/02 22:33:18;;;;;;;31.40;13.70;;;;;;;13.83;100.00;100150.19;10907888;26;20028;-17
2024/05/02 22:38:22;;;;;;;29.98;12.90;;;;;;;13.76;100.00;100142.75;10902172;26;20023;-16
2024/05/02 22:43:26;;;;;;;24.52;11.68;;;;;;;13.70;100.00;100149.53;10905869;26;20009;-15
2024/05/02 22:48:32;;;;;;;24.00;11.85;;;;;;;13.67;100.00;100139.47;10904048;26;20023;-16
2024/05/02 22:53:36;;;;;;;25.75;11.30;;;;;;;13.57;100.00;100121.88;10910398;26;20117;-16
2024/05/02 22:58:40;;;;;;;25.85;12.00;;;;;;;13.64;100.00;100120.47;10904411;26;20007;-16
2024/05/02 23:03:47;;;;;;;25.35;11.90;;;;;;;13.57;100.00;100124.56;10903776;26;20016;-16
2024/05/02 23:08:50;;;;;;;24.30;11.48;;;;;;;13.52;100.00;100110.59;10903917;26;20011;-17
2024/05/02 23:13:54;;;;;;;23.67;11.38;;;;;;;13.52;100.00;100113.28;10907143;26;21367;-17
2024/05/02 23:19:01;;;;;;;23.02;11.50;;;;;;;13.47;100.00;100114.31;10912016;26;20015;-16